関西国際空港の過去48時間の天気

関西国際空港 (Kansai intl)

現在時刻: 4/25 23:44 JST (4/25 14:44 UTC) 以下の時間は現地時間です。

過去48時間のMETAR気象情報
時間 風向 風速(m/s) 視程 気温(℃) 湿度(%) 気圧(hPa) 天気現象
25 23:30 7 10km以上 14 72 1011
25 23:00 7 10km以上 14 72 1011
25 22:30 7 10km以上 14 67 1010
25 22:00 北北東 7 10km以上 14 72 1010
25 21:30 7 10km以上 14 67 1011
25 21:00 北北東 5 10km以上 15 67 1010
25 20:30 北北東 6 10km以上 15 67 1010
25 20:00 北北東 6 10km以上 15 72 1010
25 19:30 4 10km以上 15 72 1009
25 19:00 北北東 6 10km以上 15 72 1009
25 18:30 北北東 7 10km以上 15 77 1008
25 18:00 北北東 6 10km以上 16 72 1008
25 17:30 北東 8 10km以上 16 72 1007
25 17:00 北東 5 10km以上 17 68 1007
25 16:30 北西 1 10km以上 16 88 1007
25 16:00 西 2 10km以上 17 77 1007
25 15:30 西北西 2 10km以上 16 82 1006
25 15:00 北北西 2 10km以上 16 88 1006
25 14:30 西 3 10km以上 17 77 1006
25 14:00 西 4 10km以上 17 77 1006
25 13:30 西 5 10km以上 17 77 1006
25 13:00 西北西 4 10km以上 17 77 1006
25 12:30 西北西 4 10km以上 16 82 1006
25 12:00 西北西 6 10km以上 16 82 1006 周辺でしゅう雨
25 11:30 西北西 4 10km以上 16 82 1006 周辺でしゅう雨
25 11:00 西 6 10km以上 16 88 1006 弱いしゅう雨
25 10:30 西北西 6 7,000m 16 88 1006 弱いしゅう雨
25 10:09 西北西 7 6,000m 15 94 1006 弱いしゅう雨 もや
25 10:00 西北西 8 4,500m 15 88 1006 弱いしゅう雨 もや
25 09:30 西北西 6 4,000m 15 88 1005 弱いしゅう雨 もや
25 09:00 西北西 6 3,500m 15 88 1005 弱いしゅう雨 もや
25 08:49 西北西 7 3,500m 15 88 1005 弱いしゅう雨 もや
25 08:30 西北西 8 10km以上 15 88 1004 周辺でしゅう雨
25 08:00 西北西 8 10km以上 15 88 1004 弱いしゅう雨
25 07:30 西北西 10 10km以上 14 100 1003 弱いしゅう雨
25 07:22 西 10 3,500m 14 100 1003 弱いしゅう雨 もや
25 07:08 西 11 2,500m 14 100 1003 弱いしゅう雨 もや
25 07:00 西 12 1,500m 14 100 1002 弱いしゅう雨 もや
25 06:37 西 12 1,500m 15 94 1002 弱いしゅう雨 もや
25 06:30 西 12 4,000m 15 94 1001 弱いしゅう雨 もや
25 06:00 西 12 10km以上 15 94 1001
25 05:30 西 12 10km以上 16 94 1000
25 05:00 西 9 10km以上 16 100 1000
25 04:50 西 9 7,000m 16 100 1000
25 04:37 西 9 2,500m 16 100 999 雨 もや
25 04:30 西 9 1,900m 17 94 999 雨 もや
25 04:29 西 9 1,700m 17 94 999 雨 もや
25 04:19 西 9 1,800m 17 100 999 雨 もや
25 04:06 西 8 2,300m 17 100 999 雨 もや
25 04:00 西 8 2,400m 17 100 999 雨 もや
25 03:40 西 8 1,400m 17 100 999 雨 もや
25 03:36 西 8 1,600m 17 100 999 雨 もや
25 03:30 西 9 1,700m 17 100 999 雨 もや
25 03:17 西 8 2,700m 17 100 999 雨 もや
25 03:07 西南西 8 2,100m 18 100 999 雨 もや
25 03:00 西南西 9 3,100m 18 100 999 雨 もや
25 02:51 南西 9 2,300m 19 100 999 雨 もや
25 02:39 南南西 3 2,900m 18 100 998 雨 もや
25 02:27 南東 6 2,100m 18 100 999 雨 もや
25 02:20 南東 6 1,000m 18 100 999 強い雨 もや
25 02:18 南東 5 800m 18 100 999 強い雨 霧
25 02:10 7 200m 18 100 999 強い雨 霧
25 02:00 東北東 6 200m 18 100 999 強い雨 霧
25 01:51 東北東 4 500m 18 100 999 強い雨 霧
25 01:41 4 1,500m 18 100 1000 雨 もや
25 01:30 4 1,800m 18 100 1000 雨 もや
25 01:20 東南東 3 2,100m 19 94 1000 雨 もや
25 01:09 南東 4 3,400m 19 94 1000 弱い雨 もや
25 01:00 南南東 5 10km以上 19 94 1000 弱い雨
25 00:30 南南東 5 10km以上 19 94 1001 弱い雨
25 00:12 7 7,000m 19 94 1001 弱い雨
25 00:00 7 3,500m 19 94 1002 弱い雨 もや
24 23:41 9 6,000m 19 94 1002 弱い雨
24 23:30 8 2,400m 20 88 1003 弱い雨 もや
24 23:26 9 3,900m 20 88 1003 弱い雨 もや
24 23:13 10 6,000m 20 88 1003 弱い雨
24 23:05 8 4,300m 20 88 1003 弱い雨 もや
24 23:00 8 6,000m 20 88 1003 弱い雨
24 22:30 9 10km以上 20 88 1004 弱いしゅう雨
24 22:00 10 10km以上 20 88 1004 弱いしゅう雨
24 21:30 10 10km以上 20 88 1005 弱いしゅう雨
24 21:00 6 10km以上 20 83 1005 弱いしゅう雨
24 20:30 6 10km以上 20 83 1005
24 20:00 南南東 5 10km以上 19 88 1005 弱いしゅう雨
24 19:30 6 10km以上 19 88 1005 弱いしゅう雨
24 19:00 南南東 4 10km以上 19 88 1005 弱いしゅう雨
24 18:30 南南東 5 10km以上 19 88 1006 弱いしゅう雨
24 18:00 南南東 5 9,000m 18 94 1006 弱いしゅう雨
24 17:30 3 8,000m 18 94 1007 弱いしゅう雨
24 17:00 3 10km以上 17 100 1007 弱いしゅう雨
24 16:30 東北東 2 10km以上 17 100 1007 弱いしゅう雨
24 16:00 北東 4 10km以上 18 94 1008 弱いしゅう雨
24 15:30 北東 4 10km以上 18 94 1008 弱いしゅう雨
24 15:00 北北東 3 10km以上 18 94 1008 弱いしゅう雨
24 14:30 東北東 3 10km以上 18 94 1008 弱いしゅう雨
24 14:00 東南東 4 8,000m 18 94 1009 弱いしゅう雨
24 13:41 南東 5 8,000m 18 88 1009 弱いしゅう雨
24 13:30 南東 6 8,000m 18 88 1009 しゅう雨
24 13:00 南南東 5 6,000m 18 88 1010 しゅう雨 もや
24 12:30 6 6,000m 18 94 1011 弱いしゅう雨 もや
24 12:20 5 6,000m 18 88 1011 しゅう雨 もや
24 12:00 6 6,000m 18 88 1011 弱いしゅう雨 もや
24 11:30 5 6,000m 19 83 1011 弱いしゅう雨 もや
24 11:16 5 6,000m 18 88 1012 しゅう雨 もや
24 11:00 南南西 7 10km以上 19 83 1012 弱いしゅう雨
24 10:30 7 10km以上 19 78 1012 弱いしゅう雨
24 10:11 8 10km以上 20 73 1012 弱いしゅう雨
24 10:00 8 10km以上 20 73 1012 弱いしゅう雨
24 09:30 9 10km以上 20 73 1012
24 09:00 5 10km以上 21 69 1012
24 08:30 南南東 5 10km以上 20 68 1012
24 08:00 南南東 5 10km以上 20 68 1012
24 07:30 6 10km以上 20 68 1013
24 07:00 南南東 5 10km以上 20 68 1013
24 06:30 7 10km以上 20 68 1013
24 06:00 5 10km以上 20 68 1013
24 05:30 5 10km以上 20 68 1013
24 05:00 南南東 5 10km以上 19 73 1013
24 04:30 5 10km以上 19 73 1013
24 04:00 4 10km以上 19 73 1013
24 03:30 6 10km以上 19 73 1014
24 03:00 4 10km以上 19 73 1014
24 02:30 南南東 3 10km以上 19 73 1014
24 02:00 南南東 4 10km以上 19 73 1014
24 01:30 4 10km以上 19 78 1015
24 01:00 南南東 4 10km以上 19 78 1015
24 00:30 5 10km以上 20 68 1015
24 00:00 南南東 4 10km以上 19 73 1016
RJBB 251430Z AUTO 35013KT 9999 FEW040 BKN044 14/09 Q1011 NOSIG
RJBB 251400Z AUTO 35013KT 9999 FEW037 BKN040 BKN043 14/09 Q1011 NOSIG
RJBB 251330Z 01013KT 9999 FEW020 SCT040 14/08 Q1010 NOSIG
RJBB 251300Z 02014KT 9999 FEW020 14/09 Q1010 NOSIG
RJBB 251230Z 01013KT 9999 FEW020 SCT040 14/08 Q1011 NOSIG
RJBB 251200Z 03010KT 9999 FEW020 SCT030 BKN040 15/09 Q1010 NOSIG
RJBB 251130Z 03012KT 9999 FEW020 SCT030 BKN040 15/09 Q1010 NOSIG
RJBB 251100Z 03012KT 9999 FEW020 SCT030 BKN040 15/10 Q1010 NOSIG
RJBB 251030Z 01008KT 9999 FEW020 BKN040 15/10 Q1009 NOSIG
RJBB 251000Z 03011KT 9999 FEW015 BKN040 15/10 Q1009 NOSIG
RJBB 250930Z 03013KT 9999 FEW015 BKN040 15/11 Q1008 NOSIG
RJBB 250900Z 03012KT 9999 FEW015 SCT025 BKN040 16/11 Q1008 NOSIG
RJBB 250830Z 04015KT 9999 FEW010 SCT030 BKN040 16/11 Q1007 NOSIG
RJBB 250800Z 05009KT 9999 FEW010 SCT030 BKN045 17/11 Q1007 NOSIG
RJBB 250730Z 32001KT 9999 FEW008 SCT030 BKN040 16/14 Q1007 BECMG 36006KT
RJBB 250700Z 28003KT 9999 FEW008 SCT030 BKN040 17/13 Q1007 BECMG 36006KT
RJBB 250630Z 29004KT 230V340 9999 FEW008 SCT030 BKN040 16/13 Q1006 NOSIG
RJBB 250600Z 34003KT 260V060 9999 FEW005 SCT030 BKN040 16/14 Q1006 NOSIG
RJBB 250530Z 27005KT 9999 FEW005 SCT025 BKN035 17/13 Q1006 NOSIG
RJBB 250500Z 26008KT 9999 FEW005 SCT025 BKN035 17/13 Q1006 NOSIG
RJBB 250430Z 27009KT 9999 FEW005 SCT025 BKN035 17/13 Q1006 NOSIG
RJBB 250400Z 29007KT 9999 FEW008 SCT030 BKN035 17/13 Q1006 NOSIG
RJBB 250330Z 30007KT 9999 FEW008 SCT025 BKN030 16/13 Q1006 NOSIG
RJBB 250300Z 29011KT 9999 VCSH FEW008 SCT020 BKN025 16/13 Q1006 NOSIG
RJBB 250230Z 30007KT 9999 VCSH FEW008 SCT020 BKN025 16/13 Q1006 NOSIG
RJBB 250200Z 28011KT 9999 -SHRA FEW008 SCT015 BKN020 16/14 Q1006 NOSIG
RJBB 250130Z 29011KT 7000 -SHRA FEW008 SCT015 BKN020 16/14 Q1006 NOSIG
RJBB 250109Z 29014KT 6000 -SHRA BR FEW008 SCT015 BKN020 15/14 Q1006 RMK 1ST008 3CU015 7CU020 A2971
RJBB 250100Z 29015KT 4500 -SHRA BR FEW008 SCT015 BKN020 15/13 Q1006 BECMG 9999 NSW
RJBB 250030Z 30012KT 4000 -SHRA BR FEW005 SCT015 BKN020 15/13 Q1005 BECMG 9999 NSW
RJBB 250000Z 29011KT 3500 R24L/P2000N R24R/2000N -SHRA BR FEW004 SCT008 BKN013 15/13 Q1005 BECMG 9999 NSW FEW008 SCT015 BKN025
RJBB 242349Z 29013KT 3500 -SHRA BR FEW004 SCT008 BKN013 15/13 Q1005 RMK 1ST004 3ST008 7CU013 A2968
RJBB 242330Z 29015KT 9999 VCSH FEW005 SCT010 BKN015 15/13 Q1004 NOSIG
RJBB 242300Z 29015KT 9999 -SHRA FEW005 SCT010 BKN015 15/13 Q1004 NOSIG
RJBB 242230Z 29019KT 9999 R24L/P2000N R24R/P2000N -SHRA FEW005 SCT008 BKN013 14/14 Q1003 BECMG FEW010 SCT015 BKN020
RJBB 242222Z 28020KT 3500 R24L/P2000N R24R/P2000N -SHRA BR FEW005 SCT008 BKN010 14/14 Q1003 RMK 1ST005 3ST008 7CU010 A2963
RJBB 242208Z 28022KT 2500 -SHRA BR FEW005 BKN008 BKN010 14/14 Q1003 RMK 1ST005 5ST008 7CU010 A2962
RJBB 242200Z 28023KT 1500 R24L/P2000N R24R/2000N -SHRA BR FEW005 BKN008 BKN010 14/14 Q1002 BECMG 7000 NSW FEW010 SCT015 BKN020
RJBB 242137Z 28023KT 1500 R24L/P2000N R24R/1400VP2000U -SHRA BR FEW005 BKN008 BKN010 15/14 Q1002 RMK 1ST005 5ST008 7ST010 A2959 P/RR
RJBB 242130Z 28024KT 4000 R24L/P2000N R24R/1400VP2000D -SHRA BR FEW008 SCT010 BKN013 15/14 Q1001 BECMG 7000 NSW FEW010 SCT015 BKN020
RJBB 242100Z 27024KT 9999 FEW008 OVC013 15/14 Q1001 BECMG FEW010 SCT015 BKN020
RJBB 242030Z AUTO 28023KT 9999 OVC013 16/15 Q1000 BECMG FEW010 SCT015 BKN020
RJBB 242000Z AUTO 28018KT 9999 FEW006 BKN013 OVC015 //////TCU 16/16 Q1000 NOSIG
RJBB 241950Z AUTO 27018KT 7000 RA FEW007 OVC015 //////TCU 16/16 Q1000 RMK A2953 RI003 TCU 15KM E-SW MOV UNKNOWN
RJBB 241937Z AUTO 26018KT 2500 RA BR BKN007 BKN015 OVC070 //////TCU 16/16 Q0999 RMK A2952 RI003 TCU 5KM E-SW MOV UNKNOWN
RJBB 241930Z AUTO 26017KT 1900 RA BR SCT007 BKN015 BKN038 //////TCU 17/16 Q0999 NOSIG
RJBB 241929Z AUTO 26017KT 1700 RA BR SCT007 BKN015 BKN040 //////TCU 17/16 Q0999 RMK A2952 RI004 TCU OHD MOV UNKNOWN AND 15KM NE MOV E
RJBB 241919Z AUTO 26017KT 1800 RA BR BKN007 BKN038 OVC050 //////TCU 17/17 Q0999 RMK A2952 RI007 TCU ALL QUAD MOV UNKNOWN
RJBB 241906Z AUTO 26016KT 2300 RA BR FEW007 SCT009 BKN016 //////TCU 17/17 Q0999 RMK A2952 RI005 TCU 5KM NW-N MOV NE AND 10KM SE-SW MOV E
RJBB 241900Z AUTO 26016KT 2400 RA BR SCT007 BKN034 BKN046 //////TCU 17/17 Q0999 NOSIG
RJBB 241840Z AUTO 27016KT 1400 R06R/P2000N R24R/P2000N RA BR FEW009 SCT017 BKN039 //////TCU 17/17 Q0999 RMK A2952 RI004 TCU ALL QUAD MOV UNKNOWN
RJBB 241836Z AUTO 27016KT 1600 RA BR FEW009 SCT011 BKN017 //////TCU 17/17 Q0999 RMK A2952 RI005 TCU ALL QUAD MOV UNKNOWN
RJBB 241830Z AUTO 27017KT 1700 RA BR BKN009 BKN011 OVC025 //////TCU 17/17 Q0999 NOSIG
RJBB 241817Z AUTO 26016KT 2700 RA BR FEW007 SCT010 BKN011 //////TCU 17/17 Q0999 RMK A2952 RI005 TCU NE-OHD-SW MOV UNKNOWN
RJBB 241807Z AUTO 25016KT 2100 RA BR FEW005 BKN020 BKN024 //////TCU 18/18 Q0999 RMK A2952 RI003 TCU 5KM NE AND E-SW MOV UNKNOWN
RJBB 241800Z AUTO 24017KT 3100 RA BR FEW005 BKN012 OVC018 //////TCU 18/18 Q0999 NOSIG
RJBB 241751Z AUTO 23018KT 2300 R06R/2000N R24R/P2000N RA BR FEW003 SCT009 BKN012 //////TCU 19/19 Q0999 RMK A2952 RI010 TCU ALL QUAD MOV UNKNOWN
RJBB 241739Z AUTO 21006KT 100V270 2900 RA BR FEW003 SCT005 BKN007 //////TCU 18/18 Q0998 RMK A2949 RI007 TCU OHD AND 40KM N MOV UNKNOWN AND 15KM NW AND 35KM SW MOV NE
RJBB 241727Z AUTO 13011KT 090V160 2100 R06R/1200VP2000U R06L/1100VP2000D RA BR BKN002 BKN005 OVC021 //////TCU 18/18 Q0999 RMK A2951 RI010 TCU OHD MOV UNKNOWN AND 40KM SE MOV E AND 40KM NW MOV NE
RJBB 241720Z AUTO 13011KT 1000 R06R/0900VP2000U R06L/0750VP2000U +RA BR FEW002 BKN005 BKN008 //////TCU 18/18 Q0999 RMK A2951 RI033 TCU OHD AND 20KM NW AND 35KM N MOV UNKNOWN AND 35KM S MOV E
RJBB 241718Z AUTO 14010KT 0800 R06R/0900VP2000U R06L/0750VP2000U +RA FG FEW002 BKN005 OVC013 //////TCU 18/18 Q0999 RMK A2952 RI017 TCU OHD AND 20KM NW AND 35KM N MOV UNKNOWN AND 35KM S MOV E
RJBB 241710Z AUTO 10013KT 0200 R06R/0900V1400D R06L/0750V1000D +RA FG BKN002 OVC014 //////TCU 18/18 Q0999 RMK A2950 RI050 TCU OHD MOV UNREL NE AND 40KM S MOV E
RJBB 241700Z AUTO 07011KT 0200 R06R/1000VP2000D R06L/0800V1900D +RA FG FEW002 SCT003 BKN005 //////TCU 18/18 Q0999 NOSIG
RJBB 241651Z AUTO 06007KT 040V120 0500 R06R/2000D R06L/0900VP2000D +RA FG FEW010 SCT011 BKN014 //////TCU 18/18 Q0999 RMK A2952 RI015 TCU OHD AND 20KM NW MOV UNKNOWN
RJBB 241641Z AUTO 09007KT 050V120 1500 R06R/P2000N R24R/2000N RA BR FEW014 SCT017 BKN019 //////TCU 18/18 Q1000 RMK A2953 RI007 TCU ALL QUAD MOV UNKNOWN
RJBB 241630Z AUTO 10007KT 1800 RA BR FEW016 BKN020 OVC028 //////TCU 18/18 Q1000 TEMPO FEW005 SCT008 BKN012
RJBB 241620Z AUTO 11005KT 2100 RA BR FEW014 BKN020 OVC028 //////TCU 19/18 Q1000 RMK A2954 RI005 TCU 15KM NE MOV E AND 15KM NW MOV UNKNOWN
RJBB 241609Z AUTO 14008KT 3400 -RA BR FEW014 BKN021 OVC029 //////TCU 19/18 Q1000 RMK A2955 TCU OHD MOV UNKNOWN AND 35KM S MOV NE
RJBB 241600Z AUTO 15010KT 9999 -RA FEW014 BKN021 OVC040 19/18 Q1000 TEMPO 4000 SHRA BR FEW005 SCT008 BKN012
RJBB 241530Z AUTO 16010KT 9999 -RA FEW021 SCT034 BKN042 19/18 Q1001 TEMPO 4000 SHRA BR
RJBB 241512Z AUTO 17013KT 7000 -RA FEW022 SCT032 BKN043 19/18 Q1001 RMK A2958
RJBB 241500Z AUTO 18013KT 3500 -RA BR FEW033 SCT041 BKN050 //////TCU 19/18 Q1002 NOSIG
RJBB 241441Z AUTO 18017KT 6000 -RA SCT034 SCT038 BKN080 19/18 Q1002 RMK A2961
RJBB 241430Z AUTO 18016KT 2400 -RA BR FEW034 SCT038 BKN080 //////TCU 20/18 Q1003 TEMPO 4000 SHRA BR
RJBB 241426Z AUTO 18017KT 3900 -RA BR FEW033 SCT036 BKN038 //////TCU 20/18 Q1003 RMK A2962 TCU 10KM NE MOV NE
RJBB 241413Z AUTO 18019KT 6000 -RA FEW033 SCT044 BKN100 //////TCU 20/18 Q1003 RMK A2964 TCU 5KM N-E MOV NE
RJBB 241405Z AUTO 19016KT 4300 -RA BR FEW033 SCT040 BKN044 //////TCU 20/18 Q1003 RMK A2964 TCU 5KM NW-E MOV E
RJBB 241400Z AUTO 19016KT 6000 -RA FEW033 SCT040 BKN042 //////TCU 20/18 Q1003 TEMPO 4000 SHRA BR
RJBB 241330Z 19017KT 9999 -SHRA FEW007 BKN020 BKN030 20/18 Q1004 TEMPO 4000 SHRA BR
RJBB 241300Z 19019KT 9999 -SHRA FEW008 BKN020 BKN030 20/18 Q1004 TEMPO 4000 SHRA BR
RJBB 241230Z 19020KT 9999 -SHRA FEW008 BKN020 20/18 Q1005 TEMPO SHRA
RJBB 241200Z 18012KT 9999 -SHRA FEW010 BKN020 20/17 Q1005 NOSIG
RJBB 241130Z 18012KT 9999 FEW010 BKN025 20/17 Q1005 NOSIG
RJBB 241100Z 16009KT 9999 -SHRA FEW007 SCT025 BKN035 19/17 Q1005 NOSIG
RJBB 241030Z 17012KT 9999 -SHRA FEW007 SCT025 BKN035 19/17 Q1005 NOSIG
RJBB 241000Z 15008KT 9999 -SHRA FEW007 SCT035 BKN045 19/17 Q1005 TEMPO SHRA
RJBB 240930Z 16010KT 9999 -SHRA FEW007 SCT035 BKN045 19/17 Q1006 TEMPO 4000 SHRA BR
RJBB 240900Z 16010KT 120V180 9000 -SHRA FEW005 SCT035 BKN045 18/17 Q1006 TEMPO 4000 SHRA BR
RJBB 240830Z 10005KT 8000 R06R/P2000N R06L/P2000N -SHRA FEW005 SCT025 BKN035 18/17 Q1007 TEMPO SHRA
RJBB 240800Z 08005KT 9999 -SHRA FEW005 BKN035 BKN045 17/17 Q1007 NOSIG
RJBB 240730Z 07004KT 040V100 9999 -SHRA FEW025 SCT035 BKN045 17/17 Q1007 NOSIG
RJBB 240700Z 05008KT 9999 -SHRA FEW005 SCT025 BKN035 18/17 Q1008 NOSIG
RJBB 240630Z 05007KT 9999 -SHRA FEW005 SCT025 BKN035 18/17 Q1008 NOSIG
RJBB 240600Z 03006KT 9999 -SHRA FEW005 SCT025 BKN035 18/17 Q1008 NOSIG
RJBB 240530Z 07006KT 9999 -SHRA FEW020 SCT025 BKN035 18/17 Q1008 NOSIG
RJBB 240500Z 11008KT 8000 -SHRA FEW020 SCT030 BKN040 18/17 Q1009 NOSIG
RJBB 240441Z 13009KT 8000 -SHRA FEW020 SCT030 BKN040 18/16 Q1009 RMK 1CU020 3CU030 7CU040 A2982
RJBB 240430Z 14011KT 8000 SHRA FEW020 SCT030 BKN040 18/16 Q1009 BECMG 18015KT
RJBB 240400Z 16010KT 6000 SHRA BR FEW020 BKN030 18/16 Q1010 NOSIG
RJBB 240330Z 18012KT 6000 -SHRA BR FEW020 BKN030 18/17 Q1011 TEMPO SHRA
RJBB 240320Z 18010KT 6000 SHRA BR FEW020 BKN030 18/16 Q1011 RMK 1CU020 7CU030 A2986
RJBB 240300Z 19012KT 6000 -SHRA BR FEW020 BKN030 18/16 Q1011 TEMPO SHRA
RJBB 240230Z 19010KT 6000 -SHRA BR FEW025 BKN040 19/16 Q1011 TEMPO SHRA
RJBB 240216Z 19010KT 6000 R24L/P2000N R24R/P2000N SHRA BR FEW025 BKN040 18/16 Q1012 RMK 1CU025 7CU040 A2988
RJBB 240200Z 20013KT 9999 -SHRA FEW025 BKN040 BKN080 19/16 Q1012 NOSIG
RJBB 240130Z 19014KT 9999 -SHRA FEW025 BKN040 BKN080 19/15 Q1012 NOSIG
RJBB 240111Z 19015G25KT 9999 -SHRA FEW025 BKN040 BKN100 20/15 Q1012 RMK 1CU025 5CU040 7AC100 A2989
RJBB 240100Z 18016KT 9999 -SHRA FEW025 BKN040 BKN100 20/15 Q1012 NOSIG
RJBB 240030Z 17017KT 9999 FEW025 SCT040 BKN060 20/15 Q1012 NOSIG
RJBB 240000Z 17010KT 9999 FEW025 SCT040 BKN060 21/15 Q1012 NOSIG
RJBB 232330Z 16009KT 9999 FEW025 BKN060 BKN100 20/14 Q1012 NOSIG
RJBB 232300Z 16009KT 9999 FEW025 BKN060 BKN100 20/14 Q1012 NOSIG
RJBB 232230Z 18012KT 9999 FEW025 SCT060 BKN100 20/14 Q1013 NOSIG
RJBB 232200Z 16009KT 9999 FEW025 BKN060 BKN100 20/14 Q1013 NOSIG
RJBB 232130Z 17013KT 9999 FEW025 BKN060 BKN120 20/14 Q1013 NOSIG
RJBB 232100Z 17010KT 9999 FEW025 BKN060 BKN140 20/14 Q1013 NOSIG
RJBB 232030Z AUTO 18010KT 9999 NSC 20/14 Q1013 NOSIG
RJBB 232000Z AUTO 16009KT 9999 FEW045 SCT047 BKN080 19/14 Q1013 NOSIG
RJBB 231930Z AUTO 17009KT 9999 SCT048 SCT090 BKN100 19/14 Q1013 NOSIG
RJBB 231900Z AUTO 17007KT 9999 FEW048 SCT050 BKN100 19/14 Q1013 NOSIG
RJBB 231830Z AUTO 17011KT 9999 FEW048 BKN100 OVC150 19/14 Q1014 NOSIG
RJBB 231800Z AUTO 17007KT 9999 BKN048 OVC120 19/14 Q1014 NOSIG
RJBB 231730Z AUTO 15006KT 9999 SCT046 SCT050 BKN110 19/14 Q1014 NOSIG
RJBB 231700Z AUTO 15007KT 9999 FEW046 SCT150 19/14 Q1014 NOSIG
RJBB 231630Z AUTO 17008KT 9999 NSC 19/15 Q1015 NOSIG
RJBB 231600Z AUTO 16008KT 9999 NSC 19/15 Q1015 NOSIG
RJBB 231530Z AUTO 17010KT 9999 NCD 20/14 Q1015 NOSIG
RJBB 231500Z AUTO 16008KT 9999 NCD 19/14 Q1016 NOSIG